Time;durP1;ratioP1;P1;durP2;ratioP2;P2;SDS_P1;SDS_P2;PMS_P1;PMS_P2;Temp;Humidity;BMP_temperature;BMP_pressure;BME280_temperature;BME280_humidity;BME280_pressure;Samples;Min_cycle;Max_cycle;Signal;HPM_P1;HPM_P2
2021/05/27 00:00:34;;;;;;;0.30;0.30;;;11.70;74.40;;;;;;5034449;28;20037;-65
2021/05/27 00:03:03;;;;;;;0.50;0.40;;;11.70;74.60;;;;;;5026747;28;20898;-65
2021/05/27 00:05:32;;;;;;;3.15;0.30;;;11.70;74.20;;;;;;5029128;28;20040;-65
2021/05/27 00:08:02;;;;;;;1.42;0.40;;;11.70;74.30;;;;;;5031798;28;20029;-65
2021/05/27 00:10:34;;;;;;;0.88;0.40;;;11.70;74.50;;;;;;5025635;28;20029;-65
2021/05/27 00:13:00;;;;;;;0.50;0.40;;;11.70;74.50;;;;;;5030876;28;22068;-65
2021/05/27 00:15:31;;;;;;;0.40;0.35;;;11.60;74.50;;;;;;5027312;28;20035;-65
2021/05/27 00:17:57;;;;;;;0.28;0.20;;;11.60;74.60;;;;;;5031092;28;20373;-63
2021/05/27 00:20:26;;;;;;;1.63;0.30;;;11.60;74.60;;;;;;5027765;28;20076;-65
2021/05/27 00:22:56;;;;;;;0.52;0.30;;;11.60;74.70;;;;;;5031325;28;20121;-65
2021/05/27 00:25:24;;;;;;;0.70;0.40;;;11.60;74.90;;;;;;5041900;28;20041;-65
2021/05/27 00:27:52;;;;;;;0.75;0.35;;;11.60;75.10;;;;;;5032739;28;20578;-65
2021/05/27 00:30:25;;;;;;;0.30;0.30;;;11.60;74.90;;;;;;5026227;28;20037;-65
2021/05/27 00:32:54;;;;;;;0.95;0.40;;;11.60;75.00;;;;;;5032129;28;20060;-64
2021/05/27 00:35:26;;;;;;;0.43;0.43;;;11.60;75.00;;;;;;5031212;28;20505;-64
2021/05/27 00:37:56;;;;;;;0.63;0.30;;;11.60;75.00;;;;;;5030239;28;20042;-65
2021/05/27 00:40:24;;;;;;;0.73;0.50;;;11.60;74.80;;;;;;5031391;28;20045;-66
2021/05/27 00:42:52;;;;;;;0.73;0.45;;;11.60;74.90;;;;;;5029564;28;20037;-64
2021/05/27 00:45:23;;;;;;;0.55;0.38;;;11.60;75.00;;;;;;5029476;28;20479;-65
2021/05/27 00:47:51;;;;;;;1.55;0.50;;;11.50;74.90;;;;;;5031981;28;20029;-64
2021/05/27 00:50:22;;;;;;;0.85;0.50;;;11.50;74.90;;;;;;5028518;28;20041;-65
2021/05/27 00:52:53;;;;;;;1.00;0.65;;;11.50;75.00;;;;;;5026235;28;20574;-65
2021/05/27 00:55:29;;;;;;;0.55;0.55;;;11.50;75.10;;;;;;5030442;28;20029;-64
2021/05/27 00:57:59;;;;;;;0.95;0.50;;;11.50;74.80;;;;;;5034317;28;20673;-65
2021/05/27 01:00:30;;;;;;;1.25;0.50;;;11.40;74.70;;;;;;5030413;28;20071;-66
2021/05/27 01:02:58;;;;;;;0.50;0.50;;;11.40;74.90;;;;;;5028978;28;20124;-65
2021/05/27 01:05:28;;;;;;;0.70;0.60;;;11.40;74.80;;;;;;5033607;28;20068;-64
2021/05/27 01:07:58;;;;;;;0.50;0.45;;;11.40;74.90;;;;;;5030970;28;20115;-65
2021/05/27 01:10:27;;;;;;;1.92;0.65;;;11.30;75.00;;;;;;5029869;28;20037;-65
2021/05/27 01:12:59;;;;;;;1.25;0.70;;;11.30;75.10;;;;;;5030801;28;20090;-65
2021/05/27 01:18:11;;;;;;;0.70;0.63;;;11.40;75.20;;;;;;5026760;28;20527;-64
2021/05/27 01:20:38;;;;;;;0.98;0.65;;;11.30;76.00;;;;;;5030316;28;20063;-65
2021/05/27 01:23:09;;;;;;;2.33;0.77;;;11.30;74.70;;;;;;5030049;28;20880;-64
2021/05/27 01:25:40;;;;;;;0.77;0.70;;;11.30;74.60;;;;;;5029807;28;20049;-65
2021/05/27 01:28:10;;;;;;;0.80;0.73;;;11.30;74.60;;;;;;5032451;28;20073;-64
2021/05/27 01:30:38;;;;;;;0.65;0.47;;;11.30;74.60;;;;;;5029515;28;20128;-65
2021/05/27 01:33:11;;;;;;;0.50;0.50;;;11.30;74.60;;;;;;5031137;28;20029;-65
2021/05/27 01:35:39;;;;;;;1.02;0.68;;;11.30;74.70;;;;;;5028042;28;20448;-65
2021/05/27 01:38:22;;;;;;;0.75;0.63;;;11.20;74.60;;;;;;5025705;28;20033;-65
2021/05/27 01:40:53;;;;;;;1.63;0.63;;;11.30;75.10;;;;;;5027219;28;20045;-65
2021/05/27 01:43:22;;;;;;;1.95;0.70;;;11.20;74.70;;;;;;5029576;28;20125;-65
2021/05/27 01:45:53;;;;;;;0.77;0.70;;;11.20;74.60;;;;;;5030065;28;20515;-64
2021/05/27 01:48:21;;;;;;;1.10;0.77;;;11.20;74.90;;;;;;5029796;28;20061;-64
2021/05/27 01:50:52;;;;;;;1.98;0.80;;;11.20;74.90;;;;;;5024735;28;20049;-65
2021/05/27 01:53:19;;;;;;;0.60;0.60;;;11.20;75.10;;;;;;5031108;28;20071;-65
2021/05/27 01:55:48;;;;;;;1.38;0.70;;;11.20;75.00;;;;;;5027017;28;20512;-65
2021/05/27 01:58:18;;;;;;;0.80;0.65;;;11.10;75.10;;;;;;5029552;28;20041;-65
2021/05/27 02:00:48;;;;;;;0.95;0.70;;;11.10;75.20;;;;;;5030585;28;20041;-65
2021/05/27 02:03:18;;;;;;;0.80;0.70;;;11.10;75.30;;;;;;5028028;28;20033;-64
2021/05/27 02:05:48;;;;;;;0.60;0.60;;;11.10;75.60;;;;;;5032764;28;20041;-65
2021/05/27 02:08:19;;;;;;;1.00;0.70;;;11.00;75.40;;;;;;5029615;28;20403;-65
2021/05/27 02:10:47;;;;;;;0.90;0.90;;;11.00;75.50;;;;;;5025757;28;20032;-65
2021/05/27 02:13:17;;;;;;;0.85;0.77;;;11.00;75.80;;;;;;5029816;28;20565;-65
2021/05/27 02:15:47;;;;;;;0.60;0.60;;;11.00;76.10;;;;;;5031615;28;20504;-65
2021/05/27 02:18:15;;;;;;;0.70;0.70;;;10.90;76.10;;;;;;5027049;28;20026;-65
2021/05/27 02:20:46;;;;;;;1.05;0.55;;;11.00;76.20;;;;;;5025369;28;20182;-65
2021/05/27 02:23:14;;;;;;;0.80;0.80;;;11.00;76.30;;;;;;5031150;28;20517;-66
2021/05/27 02:25:39;;;;;;;0.50;0.47;;;11.00;76.40;;;;;;5028406;28;20037;-65
2021/05/27 02:28:10;;;;;;;0.82;0.63;;;11.00;76.30;;;;;;5031168;28;20909;-65
2021/05/27 02:30:38;;;;;;;3.03;0.65;;;10.90;76.20;;;;;;5023200;28;20037;-65
2021/05/27 02:33:06;;;;;;;0.80;0.70;;;10.90;76.30;;;;;;5026282;28;20044;-65
2021/05/27 02:35:34;;;;;;;0.60;0.60;;;10.90;76.40;;;;;;5031543;28;20057;-65
2021/05/27 02:38:02;;;;;;;1.48;0.80;;;10.90;76.30;;;;;;5030114;28;20133;-65
2021/05/27 02:40:30;;;;;;;0.70;0.70;;;10.90;76.40;;;;;;5027513;28;20124;-65
2021/05/27 02:42:55;;;;;;;0.80;0.80;;;10.90;76.50;;;;;;5029394;28;20496;-65
2021/05/27 02:45:21;;;;;;;1.10;1.02;;;10.80;76.60;;;;;;5026573;28;20041;-65
2021/05/27 02:47:49;;;;;;;1.20;0.70;;;10.80;76.60;;;;;;5028894;28;20037;-65
2021/05/27 02:50:19;;;;;;;1.20;1.00;;;10.80;76.60;;;;;;5028561;28;20037;-65
2021/05/27 02:52:49;;;;;;;0.93;0.80;;;10.80;76.80;;;;;;5026622;28;20044;-63
2021/05/27 02:55:15;;;;;;;1.00;0.88;;;10.80;77.00;;;;;;5029938;28;20029;-65
2021/05/27 02:57:45;;;;;;;0.88;0.70;;;10.80;77.00;;;;;;5031819;28;20160;-65
2021/05/27 03:00:16;;;;;;;1.10;0.98;;;10.80;77.20;;;;;;5031386;28;20045;-64
2021/05/27 03:02:41;;;;;;;1.60;1.00;;;10.70;77.00;;;;;;5030699;28;20036;-64
2021/05/27 03:05:10;;;;;;;1.25;0.80;;;10.80;77.00;;;;;;5029329;28;20036;-64
2021/05/27 03:07:38;;;;;;;0.95;0.95;;;10.70;77.20;;;;;;5033346;28;20040;-65
2021/05/27 03:10:06;;;;;;;0.95;0.82;;;10.70;77.00;;;;;;5028782;28;20034;-64
2021/05/27 03:12:34;;;;;;;1.30;0.88;;;10.70;77.20;;;;;;5026253;28;20038;-64
2021/05/27 03:15:03;;;;;;;1.20;0.80;;;10.70;77.30;;;;;;5033565;28;20049;-65
2021/05/27 03:17:31;;;;;;;1.08;0.80;;;10.60;77.50;;;;;;5030327;28;20564;-65
2021/05/27 03:19:56;;;;;;;1.13;1.10;;;10.60;77.40;;;;;;5026481;28;20033;-65
2021/05/27 03:22:23;;;;;;;1.20;1.10;;;10.60;77.30;;;;;;5027841;28;20045;-63
2021/05/27 03:24:51;;;;;;;0.82;0.80;;;10.60;77.30;;;;;;5028541;28;20037;-65
2021/05/27 03:27:21;;;;;;;0.75;0.75;;;10.60;77.30;;;;;;5029408;28;20044;-65
2021/05/27 03:29:49;;;;;;;0.80;0.80;;;10.50;77.50;;;;;;5029732;28;20033;-65
2021/05/27 03:32:21;;;;;;;1.80;0.85;;;10.50;77.50;;;;;;5028063;28;20053;-65
2021/05/27 03:34:47;;;;;;;0.70;0.70;;;10.50;77.70;;;;;;5028075;28;20037;-65
2021/05/27 03:37:15;;;;;;;1.10;0.77;;;10.50;77.60;;;;;;5028036;28;20033;-65
2021/05/27 03:40:10;;;;;;;0.80;0.77;;;10.50;77.60;;;;;;5029505;28;20021;-65
2021/05/27 03:42:29;;;;;;;0.95;0.95;;;10.50;77.50;;;;;;5035007;28;20037;-65
2021/05/27 03:44:57;;;;;;;0.85;0.82;;;10.50;77.50;;;;;;5044438;28;20037;-65
2021/05/27 03:47:22;;;;;;;0.93;0.68;;;10.50;77.70;;;;;;5029297;28;20053;-65
2021/05/27 03:49:52;;;;;;;0.70;0.70;;;10.50;77.50;;;;;;5029049;28;20494;-64
2021/05/27 03:52:23;;;;;;;1.30;0.70;;;10.50;77.50;;;;;;5035057;28;20408;-64
2021/05/27 03:54:48;;;;;;;0.70;0.70;;;10.50;77.70;;;;;;5034942;28;20034;-65
2021/05/27 03:57:21;;;;;;;1.67;0.63;;;10.50;77.30;;;;;;5032852;28;20029;-65
2021/05/27 04:02:43;;;;;;;1.00;0.90;;;10.40;77.30;;;;;;5038409;28;20084;-65
2021/05/27 04:07:54;;;;;;;;;;;10.40;77.70;;;;;;5029801;28;20107;-65
2021/05/27 04:10:22;;;;;;;0.70;0.70;;;10.40;78.30;;;;;;5027857;28;19917;-64
2021/05/27 04:12:52;;;;;;;0.70;0.65;;;10.40;77.40;;;;;;5027940;28;20037;-65
2021/05/27 04:15:28;;;;;;;0.80;0.80;;;10.40;77.70;;;;;;5031809;28;20037;-64
2021/05/27 04:17:59;;;;;;;0.85;0.85;;;10.40;78.00;;;;;;5030629;28;20036;-64
2021/05/27 04:20:32;;;;;;;1.48;0.70;;;10.40;77.80;;;;;;5030065;28;20033;-63
2021/05/27 04:23:03;;;;;;;0.75;0.70;;;10.40;78.10;;;;;;5027440;28;20029;-65
2021/05/27 04:25:36;;;;;;;1.33;0.80;;;10.40;77.70;;;;;;5030881;28;20065;-65
2021/05/27 04:28:09;;;;;;;2.25;0.90;;;10.40;77.90;;;;;;5031904;28;20067;-64
2021/05/27 04:33:24;;;;;;;1.10;1.00;;;10.30;77.90;;;;;;5031523;28;20307;-64
2021/05/27 04:35:52;;;;;;;3.30;2.45;;;10.30;77.70;;;;;;5033938;28;20029;-65
2021/05/27 04:38:20;;;;;;;1.17;1.08;;;10.30;78.10;;;;;;5027120;28;20116;-63
2021/05/27 04:40:48;;;;;;;1.55;1.42;;;10.30;78.10;;;;;;5024696;28;20060;-65
2021/05/27 04:43:17;;;;;;;1.30;1.02;;;10.30;78.20;;;;;;5028278;28;20063;-65
2021/05/27 04:48:23;;;;;;;1.23;1.10;;;10.30;78.30;;;;;;5248676;23;19924;-65
2021/05/27 04:50:52;;;;;;;1.70;1.60;;;10.30;78.30;;;;;;5016226;28;20117;-63
2021/05/27 04:53:21;;;;;;;1.75;1.65;;;10.20;79.30;;;;;;5016652;28;20053;-65
2021/05/27 04:55:55;;;;;;;2.20;1.83;;;10.20;78.60;;;;;;5017717;28;20035;-65
2021/05/27 04:58:21;;;;;;;1.63;1.50;;;10.20;78.70;;;;;;5001319;28;20038;-65
2021/05/27 05:00:54;;;;;;;2.50;2.30;;;10.20;78.60;;;;;;4997626;28;20551;-65
2021/05/27 05:03:27;;;;;;;1.30;1.15;;;10.20;78.90;;;;;;4986009;28;20050;-65
2021/05/27 05:05:52;;;;;;;2.35;2.15;;;10.20;78.90;;;;;;4984883;28;20062;-65
2021/05/27 05:08:18;;;;;;;1.77;1.33;;;10.20;78.90;;;;;;4995784;28;20031;-65
2021/05/27 05:10:46;;;;;;;1.55;1.35;;;10.30;79.10;;;;;;4977208;28;20031;-65
2021/05/27 05:13:12;;;;;;;1.15;1.10;;;10.30;79.10;;;;;;4998210;28;20513;-65
2021/05/27 05:15:43;;;;;;;5.30;1.33;;;10.30;79.00;;;;;;4995832;28;20046;-63
2021/05/27 05:18:12;;;;;;;1.63;1.27;;;10.30;79.10;;;;;;4983922;28;20501;-64
2021/05/27 05:20:48;;;;;;;3.17;0.98;;;10.30;79.00;;;;;;4994662;28;20042;-64
2021/05/27 05:23:19;;;;;;;1.30;1.20;;;10.30;78.80;;;;;;4987545;28;20701;-64
2021/05/27 05:25:45;;;;;;;3.53;1.23;;;10.40;78.90;;;;;;4987694;28;20456;-64
2021/05/27 05:28:13;;;;;;;4.22;1.50;;;10.40;79.00;;;;;;5000552;28;20030;-64
2021/05/27 05:30:42;;;;;;;1.65;1.00;;;10.40;79.10;;;;;;4982798;28;20038;-64
2021/05/27 05:33:13;;;;;;;1.10;1.00;;;10.40;79.00;;;;;;4993943;28;20035;-64
2021/05/27 05:35:41;;;;;;;1.10;0.88;;;10.40;78.80;;;;;;4991172;28;20034;-65
2021/05/27 05:38:07;;;;;;;0.80;0.80;;;10.50;78.60;;;;;;4982605;28;20238;-65
2021/05/27 05:40:36;;;;;;;0.68;0.68;;;10.50;78.60;;;;;;4995891;28;20377;-63
2021/05/27 05:43:05;;;;;;;1.15;0.80;;;10.50;78.60;;;;;;4984916;28;20121;-65
2021/05/27 05:45:35;;;;;;;0.75;0.75;;;10.40;78.50;;;;;;4989343;28;20050;-65
2021/05/27 05:48:04;;;;;;;1.02;0.77;;;10.50;78.70;;;;;;4994863;28;20471;-65
2021/05/27 05:50:47;;;;;;;1.15;0.85;;;10.40;78.80;;;;;;4986625;28;20061;-64
2021/05/27 05:53:24;;;;;;;1.00;0.90;;;10.50;78.90;;;;;;4991583;28;20034;-65
2021/05/27 05:55:53;;;;;;;0.85;0.70;;;10.50;78.80;;;;;;4990878;28;20500;-64
2021/05/27 05:58:19;;;;;;;2.30;1.83;;;10.50;78.60;;;;;;4981977;28;20108;-64
2021/05/27 06:00:52;;;;;;;1.23;1.13;;;10.50;78.40;;;;;;4995414;28;20035;-64
2021/05/27 06:03:20;;;;;;;0.93;0.90;;;10.60;78.60;;;;;;5001693;28;20026;-65
2021/05/27 06:05:50;;;;;;;1.00;1.00;;;10.50;78.50;;;;;;4988754;28;20037;-65
2021/05/27 06:08:16;;;;;;;1.77;1.00;;;10.60;78.70;;;;;;4994709;28;20034;-64
2021/05/27 06:10:42;;;;;;;2.53;1.30;;;10.50;78.90;;;;;;4978273;28;20048;-64
2021/05/27 06:13:10;;;;;;;1.27;0.90;;;10.60;78.70;;;;;;4991298;28;20076;-64
2021/05/27 06:15:37;;;;;;;1.50;1.40;;;10.60;78.90;;;;;;4993119;28;20532;-64
2021/05/27 06:18:07;;;;;;;1.00;0.90;;;10.60;78.80;;;;;;4988531;28;20034;-64
2021/05/27 06:20:35;;;;;;;1.55;1.45;;;10.70;79.10;;;;;;4992653;28;20086;-64
2021/05/27 06:23:00;;;;;;;1.20;1.10;;;10.70;79.00;;;;;;4983371;28;20448;-65
2021/05/27 06:25:30;;;;;;;1.30;0.95;;;10.80;78.70;;;;;;4989236;28;20250;-65
2021/05/27 06:27:58;;;;;;;1.23;0.75;;;10.80;78.70;;;;;;4992582;28;20038;-65
2021/05/27 06:30:28;;;;;;;1.10;1.00;;;10.80;78.90;;;;;;4981580;28;20069;-65
2021/05/27 06:32:58;;;;;;;0.90;0.90;;;10.90;79.00;;;;;;4993560;28;20065;-64
2021/05/27 06:35:24;;;;;;;1.52;0.85;;;10.90;78.80;;;;;;4987669;28;20050;-65
2021/05/27 06:37:50;;;;;;;1.00;0.93;;;10.90;78.50;;;;;;4987558;28;20113;-65
2021/05/27 06:40:24;;;;;;;0.80;0.80;;;11.00;78.60;;;;;;4994487;28;20507;-65
2021/05/27 06:42:50;;;;;;;0.90;0.90;;;11.00;78.60;;;;;;4996917;28;20038;-65
2021/05/27 06:45:17;;;;;;;0.95;0.95;;;11.00;78.40;;;;;;4991543;28;20084;-65
2021/05/27 06:47:46;;;;;;;1.20;1.10;;;11.00;78.30;;;;;;4989631;28;20038;-65
2021/05/27 06:50:12;;;;;;;0.90;0.90;;;11.10;78.30;;;;;;4980867;28;20404;-65
2021/05/27 06:52:40;;;;;;;1.38;0.70;;;11.00;78.10;;;;;;4994460;28;20058;-65
2021/05/27 06:55:09;;;;;;;1.00;0.82;;;11.10;78.00;;;;;;4985953;28;20034;-64
2021/05/27 06:57:37;;;;;;;1.00;0.80;;;11.10;77.90;;;;;;4989177;28;20034;-65
2021/05/27 07:00:07;;;;;;;1.13;0.80;;;11.10;78.70;;;;;;4992904;28;20034;-65
2021/05/27 07:02:34;;;;;;;1.02;0.93;;;11.10;78.00;;;;;;4972910;28;20678;-65
2021/05/27 07:05:05;;;;;;;1.13;1.02;;;11.10;77.70;;;;;;4993710;28;20059;-64
2021/05/27 07:07:33;;;;;;;0.98;0.88;;;11.10;77.60;;;;;;4988222;28;20497;-65
2021/05/27 07:10:01;;;;;;;1.27;1.17;;;11.10;77.50;;;;;;4989008;28;20041;-65
2021/05/27 07:12:29;;;;;;;2.90;2.40;;;11.10;77.80;;;;;;4977245;28;20093;-65
2021/05/27 07:14:57;;;;;;;3.22;2.72;;;11.10;78.00;;;;;;4983689;28;20084;-65
2021/05/27 07:17:27;;;;;;;4.15;3.35;;;11.10;78.30;;;;;;4978082;28;20038;-65
2021/05/27 07:19:57;;;;;;;5.47;4.25;;;11.10;78.40;;;;;;4980710;28;20034;-65
2021/05/27 07:22:25;;;;;;;1.35;1.23;;;11.20;78.30;;;;;;5008020;28;20042;-66
2021/05/27 07:24:53;;;;;;;1.50;1.38;;;11.20;78.10;;;;;;4996123;28;20039;-65
2021/05/27 07:27:19;;;;;;;1.98;1.40;;;11.20;78.10;;;;;;4989483;28;20412;-65
2021/05/27 07:29:49;;;;;;;1.35;1.00;;;11.30;78.10;;;;;;4989179;28;20042;-65
2021/05/27 07:32:17;;;;;;;0.90;0.80;;;11.30;78.00;;;;;;4999867;28;20129;-65
2021/05/27 07:34:53;;;;;;;1.30;0.80;;;11.30;77.80;;;;;;4985539;28;20209;-65
2021/05/27 07:37:19;;;;;;;1.42;0.90;;;11.40;78.20;;;;;;4995927;28;20026;-65
2021/05/27 07:39:47;;;;;;;1.10;1.10;;;11.40;78.20;;;;;;4997698;28;20045;-65
2021/05/27 07:42:17;;;;;;;1.88;0.98;;;11.40;78.20;;;;;;4999499;28;20034;-65
2021/05/27 07:44:43;;;;;;;1.52;1.08;;;11.50;78.20;;;;;;4997451;28;20067;-65
2021/05/27 07:47:09;;;;;;;1.23;1.05;;;11.50;78.30;;;;;;4989085;28;20072;-65
2021/05/27 07:49:37;;;;;;;1.27;1.17;;;11.60;78.20;;;;;;4993181;28;20039;-65
2021/05/27 07:52:06;;;;;;;1.08;0.98;;;11.60;78.00;;;;;;4996601;28;20030;-65
2021/05/27 07:54:36;;;;;;;1.58;1.08;;;11.60;77.70;;;;;;4984581;28;20042;-65
2021/05/27 07:57:02;;;;;;;1.63;1.48;;;11.60;77.40;;;;;;4996527;28;20030;-65
2021/05/27 07:59:28;;;;;;;1.77;1.27;;;11.60;77.30;;;;;;4991748;28;20042;-65
2021/05/27 08:01:56;;;;;;;1.50;1.40;;;11.60;77.80;;;;;;4988609;28;20417;-65
2021/05/27 08:04:24;;;;;;;1.00;1.00;;;11.60;78.00;;;;;;4998822;28;20047;-66
2021/05/27 08:06:50;;;;;;;1.52;1.00;;;11.70;78.00;;;;;;4985874;28;20141;-65
2021/05/27 08:09:18;;;;;;;1.05;0.95;;;11.70;77.70;;;;;;4991838;28;20479;-65
2021/05/27 08:11:48;;;;;;;1.88;1.20;;;11.80;77.40;;;;;;4992926;28;20153;-65
2021/05/27 08:14:14;;;;;;;2.78;0.90;;;11.80;77.10;;;;;;4987312;28;20038;-66
2021/05/27 08:16:42;;;;;;;1.65;1.10;;;11.80;76.80;;;;;;5001268;28;20034;-65
2021/05/27 08:19:08;;;;;;;1.55;1.02;;;11.80;76.70;;;;;;4985181;28;20451;-65
2021/05/27 08:21:38;;;;;;;1.38;1.00;;;11.80;76.50;;;;;;4988048;28;20027;-65
2021/05/27 08:24:04;;;;;;;1.10;1.00;;;11.80;76.60;;;;;;4993934;28;20030;-65
2021/05/27 08:26:30;;;;;;;2.05;1.05;;;11.70;76.60;;;;;;4986566;28;20109;-66
2021/05/27 08:29:00;;;;;;;1.40;1.08;;;11.80;76.80;;;;;;4996629;28;20034;-65
2021/05/27 08:31:25;;;;;;;1.20;1.10;;;11.80;76.90;;;;;;4989798;28;20077;-66
2021/05/27 08:33:58;;;;;;;2.03;1.20;;;11.80;76.70;;;;;;4988767;28;20073;-65
2021/05/27 08:36:26;;;;;;;2.13;1.25;;;11.80;76.60;;;;;;5012254;28;20205;-65
2021/05/27 08:38:54;;;;;;;1.23;1.10;;;11.80;76.50;;;;;;4982124;28;20035;-66
2021/05/27 08:41:22;;;;;;;1.90;1.33;;;11.80;76.40;;;;;;4993075;28;20034;-65
2021/05/27 08:43:49;;;;;;;3.40;1.30;;;11.80;76.60;;;;;;4992180;28;20121;-66
2021/05/27 08:46:15;;;;;;;1.40;1.30;;;11.80;77.00;;;;;;4991448;28;20041;-66
2021/05/27 08:48:44;;;;;;;1.48;1.20;;;11.80;77.20;;;;;;4997971;28;20088;-65
2021/05/27 08:51:16;;;;;;;1.80;1.48;;;11.90;77.40;;;;;;4987536;28;20030;-66
2021/05/27 08:53:44;;;;;;;2.03;1.30;;;11.90;77.50;;;;;;4989397;28;20401;-66
2021/05/27 08:56:12;;;;;;;1.65;1.40;;;12.00;77.70;;;;;;4993624;28;20117;-66
2021/05/27 08:58:42;;;;;;;2.53;1.00;;;12.00;77.40;;;;;;4981577;28;20035;-65
2021/05/27 09:01:12;;;;;;;1.67;1.40;;;12.10;77.00;;;;;;4994080;28;20101;-65
2021/05/27 09:03:45;;;;;;;2.40;1.35;;;12.20;76.70;;;;;;4991110;28;20137;-66
2021/05/27 09:06:16;;;;;;;1.88;1.13;;;12.20;76.10;;;;;;4985889;28;20097;-64
2021/05/27 09:08:42;;;;;;;1.30;1.20;;;12.20;76.20;;;;;;4996711;28;20030;-66
2021/05/27 09:11:14;;;;;;;1.85;1.40;;;12.20;76.30;;;;;;4991738;28;20107;-66
2021/05/27 09:13:53;;;;;;;2.83;1.50;;;12.30;76.50;;;;;;5015562;28;20026;-65
2021/05/27 09:16:25;;;;;;;1.65;1.50;;;12.30;76.30;;;;;;5000231;28;20050;-66
2021/05/27 09:18:53;;;;;;;1.60;1.50;;;12.30;76.60;;;;;;5000085;28;20519;-65
2021/05/27 09:21:42;;;;;;;1.40;1.23;;;12.40;76.70;;;;;;4990880;28;20520;-66
2021/05/27 09:24:08;;;;;;;1.77;1.40;;;12.40;76.70;;;;;;4996869;28;20034;-66
2021/05/27 09:26:53;;;;;;;2.67;1.30;;;12.50;76.30;;;;;;4981698;28;20058;-66
2021/05/27 09:29:21;;;;;;;2.42;1.58;;;12.60;76.30;;;;;;4993697;28;20172;-66
2021/05/27 09:32:05;;;;;;;2.17;1.63;;;12.60;76.30;;;;;;4991783;28;20030;-65
2021/05/27 09:34:52;;;;;;;1.50;1.40;;;12.70;77.20;;;;;;4995286;28;20038;-65
2021/05/27 09:37:34;;;;;;;1.90;1.80;;;12.80;75.30;;;;;;4990812;28;20049;-66
2021/05/27 09:40:05;;;;;;;2.60;1.52;;;12.80;74.90;;;;;;4992026;28;20030;-66
2021/05/27 09:42:48;;;;;;;1.75;1.65;;;12.80;75.30;;;;;;4981238;28;20555;-66
2021/05/27 09:45:21;;;;;;;3.28;1.23;;;12.90;75.00;;;;;;5007016;28;20042;-67
2021/05/27 09:47:50;;;;;;;1.30;1.20;;;13.00;75.30;;;;;;4992540;28;20508;-67
2021/05/27 09:50:18;;;;;;;1.33;1.00;;;13.10;74.90;;;;;;4985883;28;20046;-66
2021/05/27 09:52:47;;;;;;;2.90;1.63;;;13.20;74.50;;;;;;4998224;28;20121;-66
2021/05/27 09:55:17;;;;;;;2.67;2.15;;;13.30;74.70;;;;;;4987345;28;20034;-65
2021/05/27 09:57:47;;;;;;;3.22;1.98;;;13.40;74.40;;;;;;4988835;28;20161;-66
2021/05/27 10:00:29;;;;;;;1.75;1.50;;;13.60;74.20;;;;;;4998666;28;20138;-66
2021/05/27 10:02:59;;;;;;;3.60;2.20;;;13.70;73.60;;;;;;5000712;28;20050;-65
2021/05/27 10:05:27;;;;;;;2.53;1.25;;;13.80;73.40;;;;;;4992908;28;20517;-66
2021/05/27 10:07:58;;;;;;;1.83;1.20;;;13.90;72.50;;;;;;5009928;28;20061;-66
2021/05/27 10:10:26;;;;;;;2.05;0.98;;;14.00;72.00;;;;;;4982576;28;20038;-66
2021/05/27 10:12:54;;;;;;;1.08;0.90;;;14.00;70.80;;;;;;4996993;28;20506;-66
2021/05/27 10:15:24;;;;;;;1.38;1.00;;;14.10;71.20;;;;;;4990414;28;20034;-66
2021/05/27 10:17:52;;;;;;;1.25;1.00;;;14.10;71.30;;;;;;4988793;28;20583;-66
2021/05/27 10:20:24;;;;;;;1.40;1.00;;;14.10;70.90;;;;;;4996395;28;20030;-66
2021/05/27 10:22:54;;;;;;;0.90;0.90;;;14.20;70.60;;;;;;5001751;28;20034;-66
2021/05/27 10:25:20;;;;;;;0.88;0.85;;;14.20;70.70;;;;;;4993433;28;20030;-66
2021/05/27 10:27:50;;;;;;;3.55;1.40;;;14.20;70.60;;;;;;4992610;28;20030;-66
2021/05/27 10:30:19;;;;;;;3.35;1.00;;;14.30;70.90;;;;;;4984100;28;20034;-66
2021/05/27 10:32:49;;;;;;;1.40;1.10;;;14.30;71.30;;;;;;4996402;28;20130;-66
2021/05/27 10:35:19;;;;;;;1.85;1.00;;;14.40;70.80;;;;;;4988479;28;20113;-66
2021/05/27 10:37:49;;;;;;;0.80;0.77;;;14.40;69.80;;;;;;4990290;28;20104;-66
2021/05/27 10:40:21;;;;;;;0.98;0.88;;;14.50;69.70;;;;;;4995649;28;20196;-66
2021/05/27 10:43:04;;;;;;;1.30;0.90;;;14.60;69.10;;;;;;4983366;28;20029;-66
2021/05/27 10:45:52;;;;;;;2.45;1.00;;;14.60;68.70;;;;;;4989795;28;20418;-66
2021/05/27 10:48:26;;;;;;;1.05;1.00;;;14.70;68.40;;;;;;4993713;28;20041;-66
2021/05/27 10:51:18;;;;;;;0.93;0.90;;;14.70;67.40;;;;;;5012528;28;20567;-66
2021/05/27 10:53:48;;;;;;;2.20;1.20;;;14.80;66.90;;;;;;4994043;28;20051;-66
2021/05/27 10:56:15;;;;;;;1.52;1.10;;;14.70;67.80;;;;;;4996902;28;20027;-66
2021/05/27 10:58:52;;;;;;;0.88;0.88;;;14.80;67.30;;;;;;4986528;28;20049;-66
2021/05/27 11:01:20;;;;;;;1.65;0.80;;;14.80;66.90;;;;;;4993961;28;20023;-66
2021/05/27 11:03:49;;;;;;;0.80;0.80;;;14.80;66.90;;;;;;4991303;28;20077;-66
2021/05/27 11:06:21;;;;;;;0.80;0.80;;;14.90;67.10;;;;;;4991430;28;20042;-66
2021/05/27 11:08:48;;;;;;;1.38;0.85;;;14.90;66.30;;;;;;5000091;28;20702;-66
2021/05/27 11:11:42;;;;;;;1.70;0.80;;;14.90;66.70;;;;;;5002494;28;20099;-67
2021/05/27 11:14:26;;;;;;;1.00;0.90;;;15.00;65.50;;;;;;4988066;28;20485;-67
2021/05/27 11:17:07;;;;;;;1.67;0.80;;;15.10;65.90;;;;;;5018035;28;20030;-67
2021/05/27 11:20:05;;;;;;;0.77;0.77;;;15.10;66.30;;;;;;5019407;28;20034;-66
2021/05/27 11:25:24;;;;;;;3.15;0.90;;;15.20;66.40;;;;;;4995614;28;20532;-67
2021/05/27 11:27:56;;;;;;;;;;;15.20;66.60;;;;;;4996598;28;20061;-67
2021/05/27 11:30:36;;;;;;;1.30;1.00;;;15.20;66.30;;;;;;4984198;28;19993;-68
2021/05/27 11:33:23;;;;;;;0.98;0.60;;;15.30;66.00;;;;;;4998879;28;20070;-67
2021/05/27 11:35:53;;;;;;;1.45;0.80;;;15.40;65.90;;;;;;4998497;28;20045;-67
2021/05/27 11:38:29;;;;;;;1.80;0.90;;;15.50;65.40;;;;;;5001355;28;20034;-66
2021/05/27 11:41:01;;;;;;;0.68;0.63;;;15.50;65.20;;;;;;4998046;28;20034;-66
2021/05/27 11:43:45;;;;;;;1.15;0.70;;;15.60;64.50;;;;;;4990317;28;20030;-66
2021/05/27 11:46:31;;;;;;;1.08;0.70;;;15.60;64.60;;;;;;4986751;28;20027;-66
2021/05/27 11:49:02;;;;;;;1.10;0.65;;;15.60;62.60;;;;;;5002097;28;20114;-66
2021/05/27 11:51:33;;;;;;;0.70;0.70;;;15.70;64.10;;;;;;4992080;28;20053;-66
2021/05/27 11:54:03;;;;;;;1.02;0.60;;;15.70;63.90;;;;;;4987897;28;20092;-66
2021/05/27 11:56:43;;;;;;;0.50;0.50;;;15.80;63.80;;;;;;5013938;28;20030;-66
2021/05/27 11:59:16;;;;;;;0.57;0.57;;;15.80;62.70;;;;;;4988110;28;20031;-67
2021/05/27 12:01:45;;;;;;;1.15;0.70;;;15.90;63.80;;;;;;4991787;28;20122;-67
2021/05/27 12:04:20;;;;;;;1.90;0.80;;;15.90;63.70;;;;;;4997601;28;20042;-66
2021/05/27 12:06:46;;;;;;;1.40;0.70;;;16.00;63.00;;;;;;4997793;28;20045;-67
2021/05/27 12:09:19;;;;;;;1.38;0.70;;;16.00;62.90;;;;;;4995763;28;20544;-67
2021/05/27 12:11:47;;;;;;;0.65;0.65;;;16.00;62.60;;;;;;4978916;28;20046;-67
2021/05/27 12:14:15;;;;;;;1.10;0.75;;;16.10;62.90;;;;;;4977275;28;20034;-67
2021/05/27 12:16:43;;;;;;;0.60;0.60;;;16.20;62.40;;;;;;4997941;28;20034;-67
2021/05/27 12:19:15;;;;;;;0.70;0.63;;;16.20;62.50;;;;;;4989408;28;20722;-67
2021/05/27 12:22:00;;;;;;;1.15;0.80;;;16.20;62.80;;;;;;4993881;28;20076;-67
2021/05/27 12:24:27;;;;;;;;;;;16.20;62.30;;;;;;5000623;28;20042;-67
2021/05/27 12:26:59;;;;;;;1.25;0.70;;;16.20;62.00;;;;;;4984675;28;22028;-66
2021/05/27 12:29:30;;;;;;;0.88;0.70;;;16.20;62.00;;;;;;4992864;28;20050;-66
2021/05/27 12:31:58;;;;;;;2.08;0.80;;;16.20;61.90;;;;;;4994393;28;20513;-66
2021/05/27 12:34:26;;;;;;;1.80;1.00;;;16.10;61.60;;;;;;4982748;28;20665;-67
2021/05/27 12:36:59;;;;;;;3.25;0.90;;;16.00;61.90;;;;;;4998384;28;20030;-66
2021/05/27 12:39:38;;;;;;;1.45;0.80;;;16.00;61.90;;;;;;4991599;28;20044;-66
2021/05/27 12:42:09;;;;;;;1.55;0.90;;;16.00;62.40;;;;;;4984044;28;20485;-66
2021/05/27 12:44:44;;;;;;;1.13;0.85;;;16.10;63.00;;;;;;5008429;28;20112;-66
2021/05/27 12:47:20;;;;;;;1.25;0.80;;;16.10;62.40;;;;;;4985560;28;20285;-66
2021/05/27 12:49:47;;;;;;;1.08;0.73;;;16.10;61.90;;;;;;4985708;28;20543;-66
2021/05/27 12:52:41;;;;;;;2.92;0.80;;;16.20;62.20;;;;;;4997688;28;20038;-66
2021/05/27 12:55:10;;;;;;;1.85;0.63;;;16.20;61.90;;;;;;5000063;28;20087;-67
2021/05/27 12:58:03;;;;;;;2.85;0.80;;;16.30;62.30;;;;;;4990332;28;20042;-67
2021/05/27 13:00:47;;;;;;;0.70;0.70;;;16.30;61.90;;;;;;5011511;28;20033;-66
2021/05/27 13:03:20;;;;;;;1.73;0.82;;;16.30;61.60;;;;;;4990559;28;20035;-67
2021/05/27 13:06:07;;;;;;;1.00;0.90;;;16.40;61.70;;;;;;4988005;28;20056;-66
2021/05/27 13:08:36;;;;;;;1.20;1.00;;;16.40;60.10;;;;;;4995505;28;20494;-67
2021/05/27 13:11:30;;;;;;;0.90;0.75;;;16.50;61.90;;;;;;4986746;28;20046;-67
2021/05/27 13:13:59;;;;;;;1.02;0.70;;;16.50;61.20;;;;;;4985577;28;20043;-67
2021/05/27 13:16:59;;;;;;;1.40;0.70;;;16.50;61.70;;;;;;4995011;28;20036;-67
2021/05/27 13:19:31;;;;;;;1.30;0.70;;;16.60;60.60;;;;;;4990001;28;20109;-67
2021/05/27 13:22:04;;;;;;;1.80;0.60;;;16.60;60.90;;;;;;4986187;28;20469;-67